Time;durP1;ratioP1;P1;durP2;ratioP2;P2;SDS_P1;SDS_P2;PMS_P1;PMS_P2;Temp;Humidity;BMP_temperature;BMP_pressure;BME280_temperature;BME280_humidity;BME280_pressure;Samples;Min_cycle;Max_cycle;Signal;HPM_P1;HPM_P2
2022/09/03 00:01:05;;;;;;;8.13;1.90;;;11.20;99.90;;;;;;4339980;28;656761;-67
2022/09/03 00:03:55;;;;;;;4.67;1.57;;;11.20;99.90;;;;;;4366724;28;657437;-67
2022/09/03 00:06:44;;;;;;;3.37;1.77;;;11.10;99.90;;;;;;4369404;28;657362;-67
2022/09/03 00:09:33;;;;;;;5.03;1.60;;;11.10;99.90;;;;;;4369490;28;656490;-67
2022/09/03 00:12:23;;;;;;;4.47;1.90;;;11.10;99.90;;;;;;4384226;28;656974;-64
2022/09/03 00:15:11;;;;;;;5.20;2.00;;;11.10;99.90;;;;;;4374688;28;658217;-66
2022/09/03 00:18:00;;;;;;;4.47;1.80;;;11.10;99.90;;;;;;4390705;28;656305;-66
2022/09/03 00:20:50;;;;;;;5.90;2.00;;;11.00;99.90;;;;;;4370155;28;656763;-65
2022/09/03 00:23:39;;;;;;;4.40;1.90;;;11.00;99.90;;;;;;4364768;28;657512;-68
2022/09/03 00:26:28;;;;;;;4.47;1.83;;;10.90;99.90;;;;;;4367708;28;656934;-66
2022/09/03 00:29:18;;;;;;;4.53;1.90;;;10.80;99.90;;;;;;4368397;28;656805;-66
2022/09/03 00:32:09;;;;;;;3.13;1.87;;;10.80;99.90;;;;;;4374874;28;657490;-67
2022/09/03 00:34:58;;;;;;;3.00;1.90;;;10.80;99.90;;;;;;4369347;28;656362;-67
2022/09/03 00:37:45;;;;;;;4.07;2.00;;;10.70;99.90;;;;;;4373290;28;656666;-65
2022/09/03 00:40:37;;;;;;;7.32;2.13;;;10.80;99.90;;;;;;4407914;28;657231;-67
2022/09/03 00:43:31;;;;;;;3.80;1.90;;;10.70;99.90;;;;;;4386847;28;657099;-67
2022/09/03 00:46:22;;;;;;;6.43;1.90;;;10.70;99.90;;;;;;4387262;28;656756;-67
2022/09/03 00:49:17;;;;;;;7.37;2.20;;;10.80;99.90;;;;;;4385680;28;657188;-67
2022/09/03 00:52:10;;;;;;;3.83;1.65;;;10.80;99.90;;;;;;4381573;28;656424;-66
2022/09/03 00:54:59;;;;;;;5.80;1.80;;;10.80;99.90;;;;;;4385187;28;657459;-67
2022/09/03 00:57:52;;;;;;;9.50;1.87;;;10.80;99.90;;;;;;4383162;28;658180;-67
2022/09/03 01:00:41;;;;;;;6.43;1.87;;;10.80;99.90;;;;;;4384133;28;656650;-67
2022/09/03 01:03:34;;;;;;;3.17;1.70;;;10.70;99.90;;;;;;4385815;28;657150;-67
2022/09/03 01:06:24;;;;;;;4.43;2.10;;;10.70;99.90;;;;;;4364692;28;657428;-67
2022/09/03 01:09:22;;;;;;;3.53;1.80;;;10.70;99.90;;;;;;4385841;28;657095;-67
2022/09/03 01:12:14;;;;;;;11.13;2.07;;;10.60;99.90;;;;;;4385706;28;658092;-67
2022/09/03 01:15:06;;;;;;;5.03;1.83;;;10.60;99.90;;;;;;4363938;28;658989;-66
2022/09/03 01:18:02;;;;;;;9.17;2.43;;;10.50;99.90;;;;;;4386132;28;656909;-67
2022/09/03 01:20:59;;;;;;;6.20;2.37;;;10.50;99.90;;;;;;4384910;28;656684;-67
2022/09/03 01:23:57;;;;;;;4.80;2.10;;;10.60;99.90;;;;;;4384634;28;656974;-67
2022/09/03 01:26:55;;;;;;;6.90;2.17;;;10.60;99.90;;;;;;4384342;28;658927;-67
2022/09/03 01:29:47;;;;;;;6.60;2.40;;;10.60;99.90;;;;;;4364924;28;657420;-67
2022/09/03 01:32:41;;;;;;;6.63;2.37;;;10.60;99.90;;;;;;4404417;28;656365;-65
2022/09/03 01:35:30;;;;;;;5.77;2.10;;;10.60;99.90;;;;;;4382519;28;657427;-67
2022/09/03 01:38:23;;;;;;;5.93;2.20;;;10.50;99.90;;;;;;4386662;28;657756;-67
2022/09/03 01:44:22;;;;;;;5.93;2.40;;;10.40;99.90;;;;;;4384128;28;656946;-67
2022/09/03 01:47:14;;;;;;;5.80;2.17;;;10.30;99.90;;;;;;4385652;28;656949;-67
2022/09/03 01:50:04;;;;;;;4.03;2.10;;;10.20;99.90;;;;;;4360529;28;657284;-67
2022/09/03 01:52:54;;;;;;;7.33;2.80;;;10.20;99.90;;;;;;4389441;28;656643;-67
2022/09/03 01:55:47;;;;;;;6.77;2.47;;;10.10;99.90;;;;;;4382664;28;657805;-67
2022/09/03 01:58:36;;;;;;;6.00;2.70;;;10.10;99.90;;;;;;4383124;28;657752;-67
2022/09/03 02:01:25;;;;;;;6.00;2.90;;;10.10;99.90;;;;;;4385757;28;657493;-67
2022/09/03 02:04:19;;;;;;;7.43;2.50;;;10.20;99.90;;;;;;4386217;28;657121;-66
2022/09/03 02:07:06;;;;;;;5.47;2.80;;;10.20;99.90;;;;;;4388131;28;657297;-65
2022/09/03 02:09:53;;;;;;;6.95;2.60;;;10.20;99.90;;;;;;4411020;28;657281;-67
2022/09/03 02:12:41;;;;;;;8.43;3.10;;;10.10;99.90;;;;;;4389461;28;657024;-66
2022/09/03 02:15:30;;;;;;;9.43;2.87;;;10.20;99.90;;;;;;4411807;28;656376;-67
2022/09/03 02:18:18;;;;;;;6.67;2.70;;;10.20;99.90;;;;;;4388906;28;657600;-67
2022/09/03 02:21:07;;;;;;;5.97;2.70;;;10.20;99.90;;;;;;4392355;28;656553;-67
2022/09/03 02:23:54;;;;;;;7.40;2.70;;;10.10;99.90;;;;;;4412191;28;657213;-67
2022/09/03 02:26:41;;;;;;;5.70;2.67;;;10.10;99.90;;;;;;4389644;28;656506;-67
2022/09/03 02:29:28;;;;;;;10.40;2.87;;;10.00;99.90;;;;;;4415379;28;657176;-67
2022/09/03 02:32:15;;;;;;;11.63;2.70;;;10.00;99.90;;;;;;4391724;28;657885;-66
2022/09/03 02:35:03;;;;;;;10.60;3.00;;;10.00;99.90;;;;;;4409322;28;659093;-67
2022/09/03 02:37:51;;;;;;;6.83;2.70;;;10.10;99.90;;;;;;4401456;28;657901;-65
2022/09/03 02:40:39;;;;;;;8.93;3.00;;;10.20;99.90;;;;;;4410003;28;656383;-67
2022/09/03 02:43:31;;;;;;;10.63;2.95;;;10.20;99.90;;;;;;4394007;28;656994;-67
2022/09/03 02:46:20;;;;;;;5.80;2.57;;;10.30;99.90;;;;;;4387841;28;658370;-67
2022/09/03 02:49:07;;;;;;;5.90;2.63;;;10.30;99.90;;;;;;4387849;28;657483;-67
2022/09/03 02:51:58;;;;;;;6.63;2.80;;;10.40;99.90;;;;;;4407585;28;656527;-66
2022/09/03 02:54:46;;;;;;;6.97;2.80;;;10.40;99.90;;;;;;4403264;28;657314;-66
2022/09/03 02:57:34;;;;;;;6.53;3.30;;;10.30;99.90;;;;;;4407999;28;656620;-67
2022/09/03 03:00:21;;;;;;;8.97;3.07;;;10.40;99.90;;;;;;4393582;28;656806;-67
2022/09/03 03:03:08;;;;;;;6.27;3.00;;;10.30;99.90;;;;;;4411304;28;657063;-67
2022/09/03 03:05:56;;;;;;;5.10;2.83;;;10.30;99.90;;;;;;4399074;28;656920;-66
2022/09/03 03:08:43;;;;;;;10.57;3.10;;;10.20;99.90;;;;;;4412718;28;657675;-67
2022/09/03 03:11:32;;;;;;;6.87;3.17;;;10.20;99.90;;;;;;4392738;28;657621;-65
2022/09/03 03:14:19;;;;;;;7.57;3.10;;;10.10;99.90;;;;;;4410047;28;656349;-67
2022/09/03 03:17:06;;;;;;;6.83;2.90;;;10.10;99.90;;;;;;4392617;28;656509;-67
2022/09/03 03:19:53;;;;;;;4.80;2.50;;;10.00;99.90;;;;;;4414183;28;657538;-66
2022/09/03 03:22:40;;;;;;;9.53;3.50;;;9.90;99.90;;;;;;4389984;28;656815;-66
2022/09/03 03:25:27;;;;;;;8.07;3.30;;;9.90;99.90;;;;;;4413208;28;656652;-67
2022/09/03 03:28:18;;;;;;;8.97;3.50;;;9.90;99.90;;;;;;4411262;28;655179;-66
2022/09/03 03:31:06;;;;;;;9.13;3.13;;;9.90;99.90;;;;;;4392103;28;655453;-66
2022/09/03 03:33:54;;;;;;;6.63;3.17;;;9.80;99.90;;;;;;4415708;28;656007;-67
2022/09/03 03:36:41;;;;;;;6.03;3.20;;;9.70;99.90;;;;;;4387834;28;656162;-67
2022/09/03 03:39:28;;;;;;;9.60;3.00;;;9.70;99.90;;;;;;4414261;28;656668;-67
2022/09/03 03:42:15;;;;;;;10.67;3.60;;;9.70;99.90;;;;;;4393228;28;655860;-66
2022/09/03 03:45:05;;;;;;;9.63;3.20;;;9.60;99.90;;;;;;4414854;28;656467;-67
2022/09/03 03:47:52;;;;;;;10.40;3.20;;;9.60;99.90;;;;;;4389376;28;656577;-66
2022/09/03 03:50:39;;;;;;;5.00;3.00;;;9.60;99.90;;;;;;4409158;28;657082;-67
2022/09/03 03:53:26;;;;;;;7.07;3.63;;;9.70;99.90;;;;;;4391291;28;655346;-67
2022/09/03 03:56:15;;;;;;;8.50;2.93;;;9.60;99.90;;;;;;4410332;28;657059;-66
2022/09/03 03:59:02;;;;;;;13.20;3.40;;;9.50;99.90;;;;;;4385977;28;656334;-66
2022/09/03 04:01:50;;;;;;;14.70;3.67;;;9.60;99.90;;;;;;4410577;28;656474;-67
2022/09/03 04:04:38;;;;;;;10.97;3.50;;;9.60;99.90;;;;;;4382907;28;657194;-67
2022/09/03 04:07:25;;;;;;;9.23;3.40;;;9.60;99.90;;;;;;4402632;28;656534;-65
2022/09/03 04:10:14;;;;;;;7.70;3.60;;;9.60;99.90;;;;;;4412523;28;655227;-66
2022/09/03 04:13:01;;;;;;;10.10;3.60;;;9.60;99.90;;;;;;4395311;28;655452;-66
2022/09/03 04:15:48;;;;;;;6.40;3.20;;;9.60;99.90;;;;;;4405367;28;657542;-67
2022/09/03 04:18:37;;;;;;;8.75;3.35;;;9.60;99.90;;;;;;4390247;28;656644;-65
2022/09/03 04:21:25;;;;;;;7.13;3.30;;;9.60;99.90;;;;;;4408309;28;655619;-67
2022/09/03 04:24:12;;;;;;;7.63;3.40;;;9.60;99.90;;;;;;4384378;28;658910;-67
2022/09/03 04:27:00;;;;;;;13.27;3.50;;;9.60;99.90;;;;;;4409026;28;656270;-67
2022/09/03 04:29:47;;;;;;;9.60;3.13;;;9.70;99.90;;;;;;4385113;28;657581;-67
2022/09/03 04:35:45;;;;;;;10.17;3.37;;;9.70;99.90;;;;;;4381816;28;655964;-67
2022/09/03 04:38:32;;;;;;;8.63;3.40;;;9.70;99.90;;;;;;4384891;28;657321;-67
2022/09/03 04:41:21;;;;;;;11.03;2.90;;;9.80;99.90;;;;;;4409044;28;655429;-66
2022/09/03 04:44:08;;;;;;;7.53;3.30;;;9.90;99.90;;;;;;4409049;28;656422;-67
2022/09/03 04:46:56;;;;;;;8.27;3.23;;;9.90;99.90;;;;;;4389615;28;655651;-67
2022/09/03 04:49:43;;;;;;;8.93;3.37;;;10.10;99.90;;;;;;4412694;28;655633;-67
2022/09/03 04:52:32;;;;;;;7.13;3.40;;;10.20;99.90;;;;;;4387989;28;656337;-65
2022/09/03 04:55:19;;;;;;;6.10;3.13;;;10.30;99.90;;;;;;4407563;28;656689;-67
2022/09/03 04:58:07;;;;;;;8.27;3.40;;;10.40;99.90;;;;;;4391004;28;656806;-67
2022/09/03 05:00:55;;;;;;;7.73;3.27;;;10.50;99.90;;;;;;4407495;28;657620;-67
2022/09/03 05:03:42;;;;;;;9.20;3.40;;;10.60;99.90;;;;;;4383788;28;658196;-67
2022/09/03 05:06:30;;;;;;;10.40;3.27;;;10.70;99.90;;;;;;4404962;28;656687;-68
2022/09/03 05:09:18;;;;;;;6.33;3.27;;;10.80;99.90;;;;;;4379660;28;658579;-66
2022/09/03 05:12:06;;;;;;;9.40;3.57;;;10.90;99.90;;;;;;4390601;28;656351;-66
2022/09/03 05:14:53;;;;;;;10.33;3.70;;;11.00;99.90;;;;;;4416604;28;656924;-68
2022/09/03 05:17:40;;;;;;;6.23;3.27;;;11.10;99.90;;;;;;4394196;28;658438;-66
2022/09/03 05:20:28;;;;;;;8.00;3.10;;;11.20;99.90;;;;;;4411176;28;657970;-66
2022/09/03 05:23:15;;;;;;;7.37;3.23;;;11.40;99.90;;;;;;4389791;28;656515;-66
2022/09/03 05:26:07;;;;;;;7.00;3.10;;;11.50;99.90;;;;;;4408190;28;657442;-67
2022/09/03 05:28:55;;;;;;;8.20;3.37;;;11.60;99.90;;;;;;4405969;28;656525;-67
2022/09/03 05:31:43;;;;;;;7.60;3.13;;;11.70;99.90;;;;;;4408729;28;657894;-66
2022/09/03 05:34:31;;;;;;;9.40;2.90;;;11.80;99.90;;;;;;4399049;28;657172;-66
2022/09/03 05:37:18;;;;;;;8.13;3.08;;;11.90;99.90;;;;;;4407810;28;657549;-68
2022/09/03 05:40:09;;;;;;;8.10;3.20;;;12.00;99.90;;;;;;4390022;28;656441;-67
2022/09/03 05:42:58;;;;;;;8.10;3.70;;;12.20;99.90;;;;;;4390251;28;657338;-68
2022/09/03 05:45:46;;;;;;;10.63;3.50;;;12.40;99.90;;;;;;4392771;28;656879;-67
2022/09/03 05:48:33;;;;;;;5.97;3.27;;;12.60;99.90;;;;;;4411237;28;658329;-67
2022/09/03 05:51:20;;;;;;;9.50;3.77;;;12.70;99.90;;;;;;4390063;28;656792;-67
2022/09/03 05:54:08;;;;;;;6.10;2.90;;;12.90;99.90;;;;;;4416948;28;657245;-68
2022/09/03 05:56:55;;;;;;;11.20;3.90;;;13.00;99.90;;;;;;4392534;28;656607;-67
2022/09/03 05:59:44;;;;;;;7.77;3.17;;;13.10;99.90;;;;;;4413380;28;657651;-69
2022/09/03 06:02:31;;;;;;;8.37;3.27;;;13.30;99.90;;;;;;4389852;28;657190;-67
2022/09/03 06:05:18;;;;;;;7.30;3.20;;;13.40;99.90;;;;;;4412882;28;657773;-67
2022/09/03 06:08:05;;;;;;;5.60;3.50;;;13.50;99.90;;;;;;4391942;28;656711;-67
2022/09/03 06:10:57;;;;;;;7.93;3.20;;;13.60;99.90;;;;;;4410625;28;657386;-67
2022/09/03 06:13:46;;;;;;;5.40;2.90;;;13.70;99.90;;;;;;4382976;28;656559;-67
2022/09/03 06:16:35;;;;;;;8.23;3.20;;;13.70;99.90;;;;;;4409685;28;657581;-67
2022/09/03 06:19:23;;;;;;;6.03;3.20;;;13.70;99.90;;;;;;4384758;28;657223;-67
2022/09/03 06:22:10;;;;;;;10.77;2.93;;;13.80;99.90;;;;;;4407421;28;657739;-65
2022/09/03 06:24:57;;;;;;;6.60;2.80;;;13.70;99.90;;;;;;4414534;28;657844;-68
2022/09/03 06:27:44;;;;;;;5.63;2.77;;;13.80;99.90;;;;;;4412082;28;657067;-68
2022/09/03 06:30:31;;;;;;;8.43;3.13;;;13.90;99.90;;;;;;4385939;28;657700;-68
2022/09/03 06:33:20;;;;;;;6.33;3.00;;;14.10;99.90;;;;;;4402720;28;657355;-67
2022/09/03 06:36:09;;;;;;;10.00;3.10;;;14.20;99.90;;;;;;4391278;28;657558;-68
2022/09/03 06:38:57;;;;;;;5.57;3.43;;;14.40;99.90;;;;;;4389245;28;657858;-68
2022/09/03 06:41:44;;;;;;;4.70;2.77;;;14.60;99.90;;;;;;4407301;28;656491;-68
2022/09/03 06:44:31;;;;;;;5.20;3.00;;;14.60;99.90;;;;;;4394117;28;656735;-68
2022/09/03 06:47:18;;;;;;;4.73;2.60;;;14.70;99.90;;;;;;4412083;28;657759;-68
2022/09/03 06:50:08;;;;;;;4.03;2.13;;;14.80;99.90;;;;;;4392827;28;656619;-67
2022/09/03 06:52:55;;;;;;;3.47;2.00;;;15.00;99.90;;;;;;4391525;28;656592;-67
2022/09/03 06:55:44;;;;;;;6.47;2.00;;;15.20;99.90;;;;;;4411366;28;656924;-67
2022/09/03 06:58:31;;;;;;;3.27;1.80;;;15.30;99.90;;;;;;4391788;28;656795;-67
2022/09/03 07:01:19;;;;;;;3.60;1.90;;;15.40;99.90;;;;;;4399216;28;656531;-67
2022/09/03 07:04:07;;;;;;;2.87;1.90;;;15.60;99.90;;;;;;4381213;28;656454;-68
2022/09/03 07:06:56;;;;;;;3.57;2.17;;;15.60;99.90;;;;;;4402566;28;656722;-68
2022/09/03 07:09:43;;;;;;;4.20;2.10;;;15.60;99.90;;;;;;4386754;28;657650;-68
2022/09/03 07:12:36;;;;;;;4.00;1.87;;;15.50;99.90;;;;;;4388820;28;656503;-67
2022/09/03 07:15:25;;;;;;;2.17;1.63;;;15.50;99.90;;;;;;4387374;28;657710;-68
2022/09/03 07:18:12;;;;;;;3.90;2.03;;;15.60;99.90;;;;;;4387267;28;657544;-68
2022/09/03 07:21:00;;;;;;;4.97;2.20;;;15.70;99.90;;;;;;4407634;28;657003;-68
2022/09/03 07:23:48;;;;;;;3.83;2.33;;;15.80;99.90;;;;;;4387016;28;657455;-68
2022/09/03 07:26:37;;;;;;;5.80;2.20;;;15.80;99.90;;;;;;4390053;28;656790;-67
2022/09/03 07:29:24;;;;;;;5.83;2.13;;;15.70;99.90;;;;;;4407316;28;657115;-69
2022/09/03 07:32:11;;;;;;;9.83;2.40;;;15.60;99.90;;;;;;4389200;28;656737;-67
2022/09/03 07:34:58;;;;;;;5.40;2.50;;;15.60;99.90;;;;;;4409729;28;658204;-67
2022/09/03 07:37:45;;;;;;;5.50;2.42;;;15.60;99.90;;;;;;4385590;28;656915;-66
2022/09/03 07:40:34;;;;;;;6.63;1.90;;;15.70;99.90;;;;;;4412371;28;657880;-68
2022/09/03 07:43:21;;;;;;;2.70;1.80;;;15.80;99.90;;;;;;4382743;28;656664;-67
2022/09/03 07:46:11;;;;;;;2.80;1.83;;;15.80;99.90;;;;;;4414504;28;657293;-68
2022/09/03 07:49:01;;;;;;;4.70;2.10;;;15.90;99.90;;;;;;4386783;28;656908;-68
2022/09/03 07:51:49;;;;;;;6.57;2.60;;;16.00;99.90;;;;;;4385854;28;657530;-68
2022/09/03 07:54:36;;;;;;;3.03;2.33;;;16.20;99.90;;;;;;4385521;28;656830;-67
2022/09/03 07:57:25;;;;;;;3.30;2.27;;;16.30;99.90;;;;;;4404967;28;657030;-69
2022/09/03 08:00:13;;;;;;;5.60;2.80;;;16.30;99.90;;;;;;4379500;28;657123;-69
2022/09/03 08:03:05;;;;;;;9.47;2.20;;;16.20;99.90;;;;;;4382532;28;656933;-67
2022/09/03 08:05:52;;;;;;;3.47;2.57;;;16.10;99.90;;;;;;4382325;28;656736;-66
2022/09/03 08:08:40;;;;;;;7.07;3.80;;;16.00;99.90;;;;;;4397956;28;656623;-66
2022/09/03 08:11:28;;;;;;;13.67;6.10;;;16.00;99.90;;;;;;4402466;28;656801;-68
2022/09/03 08:14:17;;;;;;;12.70;4.80;;;15.90;99.90;;;;;;4384959;28;657624;-66
2022/09/03 08:17:06;;;;;;;9.63;4.00;;;16.00;99.90;;;;;;4405829;28;657731;-66
2022/09/03 08:19:55;;;;;;;5.70;3.10;;;15.80;99.90;;;;;;4395815;28;657206;-68
2022/09/03 08:22:42;;;;;;;4.10;2.47;;;15.90;99.90;;;;;;4377135;28;657057;-67
2022/09/03 08:25:29;;;;;;;6.83;2.57;;;15.90;99.90;;;;;;4402382;28;656544;-68
2022/09/03 08:28:16;;;;;;;6.93;2.73;;;16.00;99.90;;;;;;4384002;28;656421;-68
2022/09/03 08:31:10;;;;;;;7.43;2.90;;;16.20;99.90;;;;;;4407611;28;659400;-68
2022/09/03 08:33:58;;;;;;;5.70;2.90;;;16.30;99.90;;;;;;4362863;28;658600;-68
2022/09/03 08:36:46;;;;;;;8.93;3.20;;;16.30;99.90;;;;;;4399121;28;657227;-67
2022/09/03 08:39:33;;;;;;;4.07;2.40;;;16.40;99.90;;;;;;4412257;28;658072;-69
2022/09/03 08:42:25;;;;;;;4.97;2.47;;;16.50;99.90;;;;;;4388627;28;656846;-67
2022/09/03 08:45:16;;;;;;;5.93;2.97;;;16.40;99.90;;;;;;4383952;28;657773;-68
2022/09/03 08:48:07;;;;;;;4.33;2.60;;;16.50;99.90;;;;;;4385566;28;656707;-68
2022/09/03 08:50:58;;;;;;;3.90;2.10;;;16.60;99.90;;;;;;4388091;28;656735;-68
2022/09/03 08:53:47;;;;;;;3.77;2.30;;;16.60;99.90;;;;;;4365120;28;656579;-67
2022/09/03 08:56:34;;;;;;;3.77;2.00;;;16.70;99.90;;;;;;4404849;28;656589;-68
2022/09/03 08:59:22;;;;;;;4.17;2.33;;;17.00;99.90;;;;;;4385050;28;656858;-68
2022/09/03 09:02:20;;;;;;;4.80;2.87;;;17.00;99.90;;;;;;4405955;28;656988;-68
2022/09/03 09:05:11;;;;;;;10.53;2.70;;;17.20;99.90;;;;;;4388352;28;656850;-67
2022/09/03 09:08:01;;;;;;;6.37;2.77;;;17.30;99.90;;;;;;4383781;28;659418;-68
2022/09/03 09:10:53;;;;;;;5.17;2.30;;;17.50;99.90;;;;;;4378560;28;658005;-68
2022/09/03 09:13:42;;;;;;;4.87;2.60;;;17.60;99.90;;;;;;4370987;28;657771;-67
2022/09/03 09:16:36;;;;;;;2.90;2.27;;;17.60;99.90;;;;;;4408432;28;657242;-67
2022/09/03 09:19:34;;;;;;;3.90;2.40;;;17.80;99.90;;;;;;4380148;28;658645;-68
2022/09/03 09:22:27;;;;;;;3.50;2.07;;;17.90;99.90;;;;;;4388097;28;657806;-68
2022/09/03 09:25:16;;;;;;;2.40;2.03;;;17.90;99.90;;;;;;4386991;28;657460;-69
2022/09/03 09:28:10;;;;;;;4.00;2.42;;;18.10;99.90;;;;;;4383092;28;658539;-69
2022/09/03 09:30:57;;;;;;;4.57;2.23;;;18.20;99.90;;;;;;4358373;28;657457;-67
2022/09/03 09:33:45;;;;;;;3.77;2.43;;;18.30;99.90;;;;;;4398098;28;658522;-66
2022/09/03 09:36:32;;;;;;;4.40;2.50;;;18.60;99.90;;;;;;4409271;28;657353;-69
2022/09/03 09:39:21;;;;;;;3.37;2.50;;;18.50;99.90;;;;;;4410687;28;656976;-68
2022/09/03 09:42:11;;;;;;;5.50;2.30;;;18.20;99.90;;;;;;4377554;28;657584;-69
2022/09/03 09:45:08;;;;;;;6.30;2.50;;;18.50;99.90;;;;;;4380174;28;658278;-68
2022/09/03 09:47:55;;;;;;;5.80;2.53;;;18.50;99.90;;;;;;4371831;28;658006;-66
2022/09/03 09:50:42;;;;;;;3.30;2.50;;;18.20;99.90;;;;;;4409890;28;658823;-68
2022/09/03 09:53:29;;;;;;;4.23;2.13;;;18.10;99.90;;;;;;4402879;28;658212;-68
2022/09/03 09:56:24;;;;;;;3.10;2.47;;;17.90;99.90;;;;;;4386888;28;657885;-68
2022/09/03 09:59:12;;;;;;;4.10;2.60;;;17.70;99.90;;;;;;4354114;28;657921;-67
2022/09/03 10:02:11;;;;;;;4.77;2.60;;;17.70;99.90;;;;;;4399808;28;657874;-68
2022/09/03 10:05:00;;;;;;;6.43;2.60;;;17.60;99.90;;;;;;4387688;28;658458;-68
2022/09/03 10:07:55;;;;;;;7.53;2.70;;;17.40;99.90;;;;;;4382513;28;659102;-68
2022/09/03 10:10:44;;;;;;;2.60;2.30;;;17.30;99.90;;;;;;4363106;28;658195;-68
2022/09/03 10:13:36;;;;;;;6.53;3.00;;;17.20;99.90;;;;;;4385898;28;657921;-68
2022/09/03 10:16:26;;;;;;;4.80;3.30;;;17.00;99.90;;;;;;4384169;28;658033;-69
2022/09/03 10:19:16;;;;;;;7.73;3.00;;;17.10;99.90;;;;;;4387793;28;658271;-68
2022/09/03 10:22:05;;;;;;;5.93;3.10;;;16.80;99.90;;;;;;4387672;28;658313;-68
2022/09/03 10:24:56;;;;;;;5.20;3.33;;;16.80;99.90;;;;;;4386332;28;659034;-68
2022/09/03 10:27:44;;;;;;;7.97;3.27;;;16.70;99.90;;;;;;4381564;28;658187;-68
2022/09/03 10:30:42;;;;;;;7.80;3.27;;;16.70;99.90;;;;;;4385566;28;657851;-68
2022/09/03 10:33:31;;;;;;;6.30;3.27;;;16.60;99.90;;;;;;4383523;28;657520;-68
2022/09/03 10:36:21;;;;;;;6.40;4.17;;;16.30;99.90;;;;;;4394594;28;657883;-68
2022/09/03 10:39:12;;;;;;;5.70;3.70;;;16.40;99.90;;;;;;4386906;28;658214;-68
2022/09/03 10:42:05;;;;;;;5.10;3.07;;;16.50;99.90;;;;;;4380638;28;658147;-69
2022/09/03 10:45:00;;;;;;;6.23;3.17;;;16.60;99.90;;;;;;4367178;28;657713;-68
2022/09/03 10:48:03;;;;;;;3.53;3.10;;;16.70;99.90;;;;;;4366964;28;658041;-68
2022/09/03 10:50:52;;;;;;;6.87;3.27;;;16.70;99.90;;;;;;4381569;28;658123;-67
2022/09/03 10:53:49;;;;;;;4.73;3.60;;;16.60;99.90;;;;;;4413225;28;657693;-68
2022/09/03 10:56:40;;;;;;;5.50;3.80;;;16.50;99.90;;;;;;4394497;28;657339;-68
2022/09/03 10:59:43;;;;;;;5.23;3.73;;;16.40;99.90;;;;;;4394262;28;657651;-68
2022/09/03 11:02:42;;;;;;;5.07;3.70;;;16.40;99.90;;;;;;4375474;28;657554;-66
2022/09/03 11:05:35;;;;;;;4.20;3.60;;;16.50;99.90;;;;;;4405553;28;657746;-68
2022/09/03 11:08:25;;;;;;;9.27;4.10;;;16.60;99.90;;;;;;4389175;28;658911;-68
2022/09/03 11:11:14;;;;;;;4.03;3.43;;;16.70;99.90;;;;;;4390500;28;659389;-68
2022/09/03 11:14:04;;;;;;;79.63;33.93;;;16.80;99.90;;;;;;4394333;28;657235;-68
2022/09/03 11:16:53;;;;;;;25.37;12.20;;;16.90;99.90;;;;;;4392023;28;659892;-68
2022/09/03 11:19:47;;;;;;;105.40;46.30;;;17.00;99.90;;;;;;4391766;28;659767;-68
2022/09/03 11:22:36;;;;;;;26.40;11.93;;;16.70;99.90;;;;;;4385184;28;660797;-67
2022/09/03 11:25:27;;;;;;;19.10;9.00;;;16.60;99.90;;;;;;4372401;28;659964;-67
2022/09/03 11:28:20;;;;;;;11.30;6.60;;;16.40;99.90;;;;;;4387869;28;658537;-68
2022/09/03 11:31:16;;;;;;;8.17;4.43;;;16.50;99.90;;;;;;4355870;28;659713;-68
2022/09/03 11:34:06;;;;;;;17.50;8.90;;;16.60;99.90;;;;;;4389971;28;658575;-69
2022/09/03 11:37:05;;;;;;;8.03;5.60;;;16.70;99.90;;;;;;4389390;28;659485;-68
2022/09/03 11:39:58;;;;;;;9.60;5.83;;;16.60;99.90;;;;;;4367115;28;658588;-68
2022/09/03 11:42:46;;;;;;;7.00;4.77;;;16.80;99.90;;;;;;4370616;28;658097;-68
2022/09/03 11:45:37;;;;;;;7.40;4.20;;;16.90;99.90;;;;;;4415457;28;658254;-68
2022/09/03 11:48:38;;;;;;;8.50;4.40;;;17.10;99.90;;;;;;4388737;28;658324;-68
2022/09/03 11:51:34;;;;;;;7.23;4.23;;;17.10;99.90;;;;;;4394010;28;657818;-67
2022/09/03 11:54:25;;;;;;;8.40;4.13;;;17.20;99.90;;;;;;4366902;28;658604;-68
2022/09/03 11:57:14;;;;;;;4.73;3.23;;;17.50;99.90;;;;;;4393634;28;658443;-68
2022/09/03 12:00:10;;;;;;;7.73;3.47;;;17.80;99.90;;;;;;4392253;28;658297;-68
2022/09/03 12:03:01;;;;;;;7.20;3.70;;;18.10;99.90;;;;;;4389509;28;657670;-69
2022/09/03 12:05:52;;;;;;;7.63;3.70;;;18.60;99.90;;;;;;4388428;28;658299;-69
2022/09/03 12:09:12;;;;;;;5.87;3.63;;;18.90;99.90;;;;;;4389280;28;658398;-68
2022/09/03 12:12:04;;;;;;;4.80;3.90;;;19.50;99.90;;;;;;4388946;28;658245;-69
2022/09/03 12:14:56;;;;;;;8.43;4.23;;;20.00;99.90;;;;;;4393141;28;658044;-69
2022/09/03 12:17:48;;;;;;;5.20;3.80;;;20.10;99.90;;;;;;4387046;28;658219;-69
2022/09/03 12:20:35;;;;;;;5.13;3.73;;;20.80;99.90;;;;;;4370414;28;657850;-68
2022/09/03 12:23:27;;;;;;;5.67;3.30;;;21.60;99.10;;;;;;4415284;28;658590;-69
2022/09/03 12:26:14;;;;;;;7.33;3.70;;;22.10;96.90;;;;;;4388877;28;657585;-69
2022/09/03 12:29:04;;;;;;;6.57;3.20;;;21.80;93.20;;;;;;4392873;28;658864;-69
2022/09/03 12:31:55;;;;;;;4.93;3.33;;;21.60;93.40;;;;;;4392845;28;658594;-68
2022/09/03 12:34:42;;;;;;;3.20;2.87;;;21.00;92.40;;;;;;4388733;28;659357;-69
2022/09/03 12:37:35;;;;;;;6.17;4.10;;;20.80;94.10;;;;;;4412088;28;657790;-69
2022/09/03 12:40:24;;;;;;;6.30;3.63;;;21.30;93.80;;;;;;4366504;28;658748;-69
2022/09/03 12:43:12;;;;;;;5.83;3.00;;;21.90;93.30;;;;;;4393240;28;658591;-69
2022/09/03 12:45:59;;;;;;;4.20;2.80;;;22.30;91.60;;;;;;4411606;28;657396;-69
2022/09/03 12:48:55;;;;;;;5.53;3.50;;;21.90;91.20;;;;;;4388740;28;657953;-70
2022/09/03 12:51:44;;;;;;;5.63;4.07;;;22.40;92.90;;;;;;4368693;28;659220;-69
2022/09/03 12:54:31;;;;;;;7.23;3.20;;;22.70;90.40;;;;;;4392431;28;657702;-69
2022/09/03 12:57:21;;;;;;;6.37;2.93;;;23.00;88.30;;;;;;4411284;28;659197;-69
2022/09/03 13:00:09;;;;;;;6.03;2.80;;;23.10;84.90;;;;;;4387852;28;658087;-69
2022/09/03 13:02:59;;;;;;;3.10;2.80;;;23.20;85.00;;;;;;4393186;28;657796;-70
2022/09/03 13:05:49;;;;;;;5.80;3.37;;;23.40;84.30;;;;;;4393270;28;657799;-70
2022/09/03 13:08:39;;;;;;;5.17;3.47;;;23.40;83.00;;;;;;4392131;28;657520;-70
2022/09/03 13:11:26;;;;;;;5.27;3.10;;;22.90;83.80;;;;;;4387044;28;657651;-70
2022/09/03 13:14:14;;;;;;;7.43;2.80;;;23.20;83.20;;;;;;4414770;28;658541;-69
2022/09/03 13:17:31;;;;;;;6.67;3.07;;;23.50;80.70;;;;;;4392544;28;657998;-69
2022/09/03 13:20:25;;;;;;;6.70;3.03;;;23.10;82.60;;;;;;4383473;28;658179;-69
2022/09/03 13:23:22;;;;;;;6.40;3.30;;;22.90;82.70;;;;;;4365620;28;658426;-70
2022/09/03 13:26:18;;;;;;;4.43;3.10;;;23.60;83.80;;;;;;4380918;28;657851;-70
2022/09/03 13:29:19;;;;;;;6.00;2.73;;;23.60;76.60;;;;;;4375148;28;657681;-69
2022/09/03 13:32:12;;;;;;;8.10;4.83;;;23.40;76.80;;;;;;4368918;28;657905;-70
2022/09/03 13:35:04;;;;;;;5.87;3.70;;;23.40;77.90;;;;;;4387949;28;657508;-67
2022/09/03 13:37:55;;;;;;;7.13;3.70;;;23.10;76.20;;;;;;4390275;28;658390;-70
2022/09/03 13:40:48;;;;;;;6.70;2.90;;;23.10;76.20;;;;;;4374301;28;658879;-68
2022/09/03 13:43:41;;;;;;;5.57;2.53;;;22.60;77.90;;;;;;4352074;28;658163;-68
2022/09/03 13:46:30;;;;;;;8.87;2.80;;;22.70;76.00;;;;;;4377955;28;658463;-70
2022/09/03 13:52:33;;;;;;;5.87;2.57;;;23.00;79.20;;;;;;4388235;28;657567;-70
2022/09/03 13:55:22;;;;;;;3.70;2.43;;;23.10;76.20;;;;;;4369363;28;658109;-68
2022/09/03 13:58:21;;;;;;;5.77;2.53;;;22.90;75.20;;;;;;4402228;28;657631;-68
2022/09/03 14:01:12;;;;;;;2.63;2.40;;;22.60;74.90;;;;;;4387925;28;658680;-70
2022/09/03 14:04:01;;;;;;;5.90;2.73;;;22.80;76.30;;;;;;4389084;28;658037;-70
2022/09/03 14:06:54;;;;;;;4.90;2.90;;;23.00;74.50;;;;;;4392861;28;659205;-69
2022/09/03 14:09:48;;;;;;;5.77;2.33;;;23.00;75.20;;;;;;4363034;28;659004;-69
2022/09/03 14:12:41;;;;;;;6.63;3.30;;;23.40;74.50;;;;;;4374275;28;657669;-68
2022/09/03 14:15:31;;;;;;;6.53;2.90;;;23.50;74.50;;;;;;4375007;28;659129;-69
2022/09/03 14:18:28;;;;;;;8.07;3.20;;;23.20;74.00;;;;;;4386736;28;659318;-69
2022/09/03 14:21:17;;;;;;;5.10;2.70;;;23.00;74.80;;;;;;4354058;28;658524;-69
2022/09/03 14:24:07;;;;;;;4.70;2.80;;;23.20;73.30;;;;;;4406550;28;658129;-67
2022/09/03 14:26:55;;;;;;;4.10;2.70;;;23.00;73.40;;;;;;4398932;28;657330;-69
2022/09/03 14:29:50;;;;;;;4.00;2.60;;;23.50;72.90;;;;;;4396041;28;658639;-70
2022/09/03 14:32:43;;;;;;;5.27;2.60;;;23.20;72.80;;;;;;4368900;28;658530;-70
2022/09/03 14:35:48;;;;;;;4.10;2.87;;;23.20;76.90;;;;;;4369610;28;658741;-69
2022/09/03 14:39:03;;;;;;;4.77;2.90;;;23.50;71.90;;;;;;4382619;28;657377;-68
2022/09/03 14:41:57;;;;;;;4.23;3.00;;;23.50;71.80;;;;;;4362503;28;658493;-67